Time;durP1;ratioP1;P1;durP2;ratioP2;P2;SDS_P1;SDS_P2;PMS_P1;PMS_P2;Temp;Humidity;BMP_temperature;BMP_pressure;BME280_temperature;BME280_humidity;BME280_pressure;Samples;Min_cycle;Max_cycle;Signal;HPM_P1;HPM_P2
2021/12/01 00:04:35;;;;;;;0.10;0.10;;;5.90;99.90;;;;;;5146613;23;20066;-80
2021/12/01 00:07:01;;;;;;;1.23;0.20;;;5.90;99.90;;;;;;4910943;29;20040;-80
2021/12/01 00:09:26;;;;;;;0.10;0.10;;;5.90;99.90;;;;;;4935192;29;20055;-81
2021/12/01 00:11:53;;;;;;;0.15;0.15;;;5.90;99.90;;;;;;4920173;29;20042;-81
2021/12/01 00:14:19;;;;;;;2.95;0.30;;;5.90;99.90;;;;;;4919358;29;20096;-81
2021/12/01 00:16:44;;;;;;;0.10;0.10;;;5.80;99.90;;;;;;4935611;29;20051;-81
2021/12/01 00:19:10;;;;;;;0.15;0.15;;;5.80;99.90;;;;;;4919436;29;20030;-82
2021/12/01 00:21:36;;;;;;;0.40;0.40;;;5.80;99.90;;;;;;4920573;29;20090;-82
2021/12/01 00:24:01;;;;;;;0.10;0.10;;;5.80;99.90;;;;;;4921377;29;20051;-82
2021/12/01 00:26:29;;;;;;;0.38;0.10;;;5.80;99.90;;;;;;4920545;29;20036;-82
2021/12/01 00:28:54;;;;;;;0.10;0.10;;;5.80;99.90;;;;;;4921172;29;20020;-81
2021/12/01 00:31:20;;;;;;;0.10;0.10;;;5.90;99.90;;;;;;4941064;29;20141;-82
2021/12/01 00:33:46;;;;;;;0.20;0.20;;;5.80;99.90;;;;;;4940032;29;20027;-82
2021/12/01 00:36:14;;;;;;;0.10;0.10;;;5.80;99.90;;;;;;4955458;29;20035;-82
2021/12/01 00:38:42;;;;;;;0.20;0.20;;;5.90;99.90;;;;;;4955046;29;20023;-82
2021/12/01 00:41:11;;;;;;;0.45;0.35;;;6.00;99.90;;;;;;4940629;29;20562;-82
2021/12/01 00:43:39;;;;;;;0.20;0.20;;;6.00;99.90;;;;;;4940515;29;20040;-82
2021/12/01 00:46:14;;;;;;;0.20;0.20;;;6.10;99.90;;;;;;4957857;29;20118;-82
2021/12/01 00:48:41;;;;;;;1.70;0.28;;;6.00;99.90;;;;;;4958093;29;20202;-82
2021/12/01 00:51:07;;;;;;;0.30;0.30;;;6.00;99.90;;;;;;4940390;29;20118;-81
2021/12/01 00:53:33;;;;;;;0.20;0.20;;;6.00;99.90;;;;;;4942819;29;20034;-82
2021/12/01 00:55:59;;;;;;;0.20;0.20;;;6.00;99.90;;;;;;4959069;29;20035;-83
2021/12/01 00:58:24;;;;;;;0.28;0.22;;;6.00;99.90;;;;;;4942100;29;20031;-82
2021/12/01 01:00:50;;;;;;;0.50;0.50;;;6.00;99.90;;;;;;4956274;29;20035;-82
2021/12/01 01:03:17;;;;;;;0.30;0.30;;;6.00;99.90;;;;;;4938784;29;20031;-81
2021/12/01 01:05:44;;;;;;;0.30;0.30;;;6.00;99.90;;;;;;4936821;29;20047;-81
2021/12/01 01:08:10;;;;;;;0.28;0.28;;;6.00;99.90;;;;;;4953303;28;20267;-82
2021/12/01 01:18:44;;;;;;;0.28;0.28;;;6.10;99.90;;;;;;4956092;29;20042;-81
2021/12/01 01:21:10;;;;;;;0.43;0.43;;;6.00;99.90;;;;;;4940387;29;20324;-81
2021/12/01 01:23:37;;;;;;;0.10;0.10;;;6.20;99.90;;;;;;4940773;29;20031;-81
2021/12/01 01:26:06;;;;;;;0.30;0.30;;;6.20;99.90;;;;;;4941772;29;20086;-81
2021/12/01 01:28:31;;;;;;;6.50;0.30;;;6.30;99.90;;;;;;4958523;29;20456;-81
2021/12/01 01:30:58;;;;;;;0.20;0.20;;;6.40;99.90;;;;;;4956383;29;20031;-82
2021/12/01 01:33:24;;;;;;;0.30;0.30;;;6.40;99.90;;;;;;4921783;29;20032;-81
2021/12/01 01:35:52;;;;;;;0.22;0.22;;;6.50;99.90;;;;;;4938227;29;20042;-81
2021/12/01 01:38:18;;;;;;;0.35;0.35;;;6.60;99.90;;;;;;4921403;29;20396;-81
2021/12/01 01:40:44;;;;;;;0.73;0.32;;;6.60;99.90;;;;;;4922655;29;20050;-82
2021/12/01 01:43:10;;;;;;;0.20;0.20;;;6.60;99.90;;;;;;4938865;29;20448;-81
2021/12/01 01:45:36;;;;;;;3.92;0.65;;;6.60;99.90;;;;;;4920706;29;20039;-81
2021/12/01 01:48:08;;;;;;;0.30;0.20;;;6.50;99.90;;;;;;4920623;29;20119;-81
2021/12/01 01:50:36;;;;;;;0.28;0.25;;;6.50;99.90;;;;;;4921036;29;20086;-80
2021/12/01 01:53:15;;;;;;;0.10;0.10;;;6.60;99.90;;;;;;4938430;29;20032;-82
2021/12/01 01:55:47;;;;;;;0.57;0.17;;;6.60;99.90;;;;;;4922384;29;20465;-81
2021/12/01 01:58:14;;;;;;;0.20;0.20;;;6.60;99.90;;;;;;4937852;29;20054;-81
2021/12/01 02:00:51;;;;;;;0.17;0.17;;;6.70;99.90;;;;;;4920646;29;20035;-81
2021/12/01 02:03:19;;;;;;;0.10;0.10;;;6.70;99.90;;;;;;4920331;29;20028;-81
2021/12/01 02:05:45;;;;;;;0.10;0.10;;;6.70;99.90;;;;;;4917672;29;20059;-81
2021/12/01 02:08:19;;;;;;;0.30;0.30;;;6.70;99.90;;;;;;4918970;29;20031;-81
2021/12/01 02:10:48;;;;;;;0.28;0.28;;;6.60;99.90;;;;;;4918809;29;20059;-81
2021/12/01 02:13:19;;;;;;;0.10;0.10;;;6.60;99.90;;;;;;4935470;29;20034;-81
2021/12/01 02:15:50;;;;;;;0.32;0.20;;;6.70;99.90;;;;;;4934485;29;20480;-81
2021/12/01 02:18:16;;;;;;;0.13;0.13;;;6.80;99.90;;;;;;4936638;29;20079;-81
2021/12/01 02:21:17;;;;;;;1.85;0.95;;;6.80;99.90;;;;;;4918599;29;20040;-81
2021/12/01 02:23:45;;;;;;;0.15;0.15;;;6.80;99.90;;;;;;4918787;29;20079;-81
2021/12/01 02:26:12;;;;;;;0.35;0.25;;;6.90;99.90;;;;;;4936410;29;20027;-82
2021/12/01 02:28:39;;;;;;;0.22;0.22;;;6.80;99.90;;;;;;4935663;29;20055;-81
2021/12/01 02:31:05;;;;;;;0.20;0.20;;;6.90;99.90;;;;;;4937111;29;20028;-81
2021/12/01 02:33:31;;;;;;;0.10;0.10;;;6.90;99.90;;;;;;4956274;29;20429;-81
2021/12/01 02:35:57;;;;;;;4.13;0.50;;;6.90;99.90;;;;;;4955721;29;20046;-81
2021/12/01 02:38:24;;;;;;;0.10;0.10;;;6.80;99.90;;;;;;4939270;29;20465;-81
2021/12/01 02:40:50;;;;;;;0.10;0.10;;;6.90;99.90;;;;;;4941387;29;20042;-82
2021/12/01 02:43:18;;;;;;;0.15;0.15;;;6.90;99.90;;;;;;4941273;29;20027;-83
2021/12/01 02:45:44;;;;;;;0.10;0.10;;;6.80;99.90;;;;;;4937811;29;20379;-80
2021/12/01 02:48:12;;;;;;;0.30;0.30;;;6.80;99.90;;;;;;4954415;29;20027;-81
2021/12/01 02:50:40;;;;;;;0.20;0.20;;;6.90;99.90;;;;;;4938496;29;20078;-81
2021/12/01 02:53:06;;;;;;;0.17;0.17;;;6.80;99.90;;;;;;4955819;29;20031;-81
2021/12/01 02:55:40;;;;;;;0.10;0.10;;;6.80;99.90;;;;;;4953905;29;20051;-81
2021/12/01 02:58:07;;;;;;;0.10;0.10;;;6.70;99.90;;;;;;4938247;29;20034;-81
2021/12/01 03:00:34;;;;;;;0.15;0.15;;;6.70;99.90;;;;;;4938460;29;20035;-81
2021/12/01 03:03:00;;;;;;;0.13;0.13;;;6.80;99.90;;;;;;4938562;29;20027;-81
2021/12/01 03:05:26;;;;;;;0.10;0.10;;;6.80;99.90;;;;;;4953866;29;20047;-81
2021/12/01 03:07:54;;;;;;;0.10;0.10;;;6.90;99.90;;;;;;4954165;28;20245;-81
2021/12/01 03:10:21;;;;;;;0.10;0.10;;;6.80;99.90;;;;;;4955413;29;20086;-81
2021/12/01 03:12:47;;;;;;;0.10;0.10;;;6.80;99.90;;;;;;4956278;29;20027;-81
2021/12/01 03:15:16;;;;;;;0.10;0.10;;;6.90;99.90;;;;;;4953973;29;20463;-81
2021/12/01 03:17:44;;;;;;;0.20;0.20;;;6.90;99.90;;;;;;4954494;29;20039;-80
2021/12/01 03:20:14;;;;;;;0.13;0.13;;;6.80;99.90;;;;;;4955387;29;20114;-81
2021/12/01 03:22:42;;;;;;;0.10;0.10;;;6.90;99.90;;;;;;4938454;29;20037;-80
2021/12/01 03:25:13;;;;;;;0.10;0.10;;;6.80;99.90;;;;;;4937909;29;20031;-81
2021/12/01 03:27:39;;;;;;;0.10;0.10;;;6.80;99.90;;;;;;4954004;29;20070;-81
2021/12/01 03:30:10;;;;;;;0.00;0.00;;;6.90;99.90;;;;;;4937875;29;20095;-81
2021/12/01 03:32:36;;;;;;;0.10;0.10;;;7.00;99.90;;;;;;4941069;29;20036;-80
2021/12/01 03:35:05;;;;;;;0.10;0.10;;;6.90;99.90;;;;;;4935220;29;20024;-81
2021/12/01 03:37:31;;;;;;;6.82;0.30;;;6.90;99.90;;;;;;4917485;29;20059;-81
2021/12/01 03:39:58;;;;;;;0.10;0.10;;;6.80;99.90;;;;;;4935231;29;20031;-81
2021/12/01 03:42:25;;;;;;;0.10;0.10;;;6.90;99.90;;;;;;4918193;29;20039;-81
2021/12/01 03:44:52;;;;;;;0.20;0.10;;;6.90;99.90;;;;;;4935028;29;20035;-79
2021/12/01 03:47:17;;;;;;;0.10;0.10;;;6.90;99.90;;;;;;4917730;29;20036;-80
2021/12/01 03:49:43;;;;;;;0.00;0.00;;;7.00;99.90;;;;;;4933745;29;20191;-80
2021/12/01 03:52:14;;;;;;;0.10;0.10;;;6.90;99.90;;;;;;4934628;29;20091;-81
2021/12/01 03:54:40;;;;;;;0.30;0.10;;;6.90;99.90;;;;;;4917726;29;20084;-81
2021/12/01 03:57:06;;;;;;;0.10;0.10;;;6.90;99.90;;;;;;4917476;29;20469;-80
2021/12/01 03:59:32;;;;;;;0.10;0.10;;;6.90;99.90;;;;;;4917629;29;20043;-81
2021/12/01 04:01:59;;;;;;;0.10;0.10;;;6.90;99.90;;;;;;4918377;29;20040;-81
2021/12/01 04:04:25;;;;;;;0.10;0.10;;;6.90;99.90;;;;;;4934254;29;20023;-80
2021/12/01 04:06:50;;;;;;;0.10;0.10;;;6.90;99.90;;;;;;4915680;29;20055;-80
2021/12/01 04:09:16;;;;;;;0.10;0.10;;;7.00;99.90;;;;;;4933196;29;20023;-81
2021/12/01 04:11:44;;;;;;;0.10;0.10;;;6.90;99.90;;;;;;4917411;29;20042;-80
2021/12/01 04:14:10;;;;;;;0.10;0.10;;;6.80;99.90;;;;;;4916957;29;20205;-81
2021/12/01 04:16:36;;;;;;;0.10;0.10;;;6.80;99.90;;;;;;4933689;29;20039;-80
2021/12/01 04:19:01;;;;;;;0.10;0.10;;;6.80;99.90;;;;;;4934110;29;20307;-80
2021/12/01 04:21:27;;;;;;;0.10;0.10;;;6.80;99.90;;;;;;4916839;29;20063;-80
2021/12/01 04:23:55;;;;;;;0.10;0.10;;;6.80;99.90;;;;;;4917267;29;20464;-80
2021/12/01 04:26:24;;;;;;;0.10;0.10;;;6.90;99.90;;;;;;4918520;29;20028;-81
2021/12/01 04:28:52;;;;;;;0.10;0.10;;;6.90;99.90;;;;;;4934072;29;20050;-81
2021/12/01 04:31:19;;;;;;;0.08;0.08;;;6.80;99.90;;;;;;4920981;29;20055;-81
2021/12/01 04:33:45;;;;;;;0.10;0.10;;;6.80;99.90;;;;;;4953435;28;20051;-81
2021/12/01 04:36:11;;;;;;;0.10;0.10;;;6.90;99.90;;;;;;4943006;29;20525;-84
2021/12/01 04:38:37;;;;;;;0.10;0.10;;;6.90;99.90;;;;;;4969225;29;20023;-83
2021/12/01 04:41:07;;;;;;;0.10;0.10;;;6.90;99.90;;;;;;4971522;29;20039;-83
2021/12/01 04:43:33;;;;;;;0.10;0.10;;;6.90;99.90;;;;;;4959719;28;20027;-84
2021/12/01 04:45:59;;;;;;;0.10;0.10;;;7.00;99.90;;;;;;4975214;28;20031;-83
2021/12/01 04:48:26;;;;;;;0.03;0.03;;;6.90;99.90;;;;;;4959396;29;20020;-83
2021/12/01 04:50:53;;;;;;;0.00;0.00;;;7.00;99.90;;;;;;4955959;29;20507;-83
2021/12/01 04:53:19;;;;;;;0.10;0.10;;;6.90;99.90;;;;;;4953646;29;20023;-83
2021/12/01 04:55:45;;;;;;;0.20;0.20;;;6.90;99.90;;;;;;4953884;29;20030;-83
2021/12/01 04:58:12;;;;;;;0.10;0.10;;;6.90;99.90;;;;;;4952645;29;20049;-80
2021/12/01 05:00:38;;;;;;;0.10;0.10;;;6.90;99.90;;;;;;4954911;28;20046;-85
2021/12/01 05:03:06;;;;;;;0.75;0.22;;;6.90;99.90;;;;;;5145154;23;20079;-83
2021/12/01 05:08:41;;;;;;;0.55;0.20;;;6.90;99.90;;;;;;5074654;23;19906;-87
2021/12/01 05:11:09;;;;;;;1.15;0.20;;;7.50;99.90;;;;;;4962886;28;20012;-85
2021/12/01 05:13:51;;;;;;;0.10;0.10;;;5.60;99.90;;;;;;4961172;28;20027;-85
2021/12/01 05:16:17;;;;;;;0.10;0.10;;;5.60;99.90;;;;;;4942564;28;20032;-83
2021/12/01 05:18:46;;;;;;;0.10;0.10;;;4.40;99.90;;;;;;4933807;29;20109;-83
2021/12/01 05:21:12;;;;;;;0.10;0.10;;;6.80;99.90;;;;;;4918875;29;20051;-83
2021/12/01 05:23:38;;;;;;;1.17;0.30;;;6.60;99.90;;;;;;4934204;29;20114;-84
2021/12/01 05:26:09;;;;;;;0.10;0.10;;;6.60;99.90;;;;;;4943971;28;20023;-84
2021/12/01 05:28:50;;;;;;;0.03;0.03;;;6.60;99.90;;;;;;4958993;28;20130;-83
2021/12/01 05:31:16;;;;;;;0.10;0.10;;;7.10;99.90;;;;;;4935361;29;20027;-84
2021/12/01 05:33:42;;;;;;;0.17;0.17;;;6.70;99.90;;;;;;4935616;29;20035;-84
2021/12/01 05:36:35;;;;;;;0.10;0.10;;;8.50;99.90;;;;;;4942110;28;20071;-83
2021/12/01 05:39:22;;;;;;;0.10;0.10;;;6.00;99.90;;;;;;4942755;28;20020;-84
2021/12/01 05:42:07;;;;;;;0.10;0.10;;;3.70;99.90;;;;;;4961091;28;20040;-84
2021/12/01 05:44:36;;;;;;;0.10;0.10;;;6.60;99.90;;;;;;4944250;29;20042;-83
2021/12/01 05:47:36;;;;;;;1.55;0.20;;;6.50;99.90;;;;;;4961737;28;20020;-85
2021/12/01 05:50:03;;;;;;;0.10;0.10;;;6.60;99.90;;;;;;5060921;23;20067;-84
2021/12/01 05:52:30;;;;;;;0.10;0.10;;;6.10;99.90;;;;;;4939399;29;20016;-85
2021/12/01 05:54:57;;;;;;;0.10;0.10;;;5.60;99.90;;;;;;5303533;23;20058;-84
2021/12/01 05:57:22;;;;;;;0.10;0.10;;;6.50;99.90;;;;;;4934225;28;20047;-84
2021/12/01 05:59:50;;;;;;;0.10;0.10;;;5.40;99.90;;;;;;4937794;28;20127;-83
2021/12/01 06:02:17;;;;;;;0.10;0.10;;;7.00;99.90;;;;;;4934771;29;20035;-83
2021/12/01 06:04:43;;;;;;;0.00;0.00;;;6.50;99.90;;;;;;4939625;28;20397;-83
2021/12/01 06:07:08;;;;;;;0.10;0.10;;;9.20;99.90;;;;;;4928672;28;20162;-79
2021/12/01 06:09:35;;;;;;;0.10;0.10;;;6.30;99.90;;;;;;4900450;29;20024;-80
2021/12/01 06:12:00;;;;;;;0.00;0.00;;;6.30;99.90;;;;;;4915571;29;20079;-80
2021/12/01 06:14:27;;;;;;;0.30;0.30;;;6.40;99.90;;;;;;4915178;29;20035;-80
2021/12/01 06:16:53;;;;;;;0.00;0.00;;;6.30;99.90;;;;;;4913973;29;20028;-80
2021/12/01 06:19:20;;;;;;;0.00;0.00;;;6.50;99.90;;;;;;4916084;29;20119;-78
2021/12/01 06:21:46;;;;;;;0.00;0.00;;;6.40;99.90;;;;;;4918315;29;20051;-80
2021/12/01 06:24:13;;;;;;;0.00;0.00;;;6.40;99.90;;;;;;4915724;29;20396;-79
2021/12/01 06:26:38;;;;;;;0.00;0.00;;;6.40;99.90;;;;;;4916945;29;20036;-80
2021/12/01 06:29:04;;;;;;;0.00;0.00;;;6.40;99.90;;;;;;4916576;29;20107;-80
2021/12/01 06:31:30;;;;;;;0.00;0.00;;;6.40;99.90;;;;;;4922361;29;20030;-80
2021/12/01 06:33:58;;;;;;;0.00;0.00;;;6.40;99.90;;;;;;4953350;29;20171;-80
2021/12/01 06:36:25;;;;;;;0.00;0.00;;;6.40;99.90;;;;;;4936776;29;20035;-79
2021/12/01 06:38:51;;;;;;;0.17;0.10;;;6.40;99.90;;;;;;4938096;29;20403;-81
2021/12/01 06:47:46;;;;;;;0.10;0.10;;;6.30;99.90;;;;;;1164175;23;20338;-82
2021/12/01 06:50:12;;;;;;;0.00;0.00;;;6.30;99.90;;;;;;4931729;28;20123;-81
2021/12/01 06:52:41;;;;;;;0.00;0.00;;;6.30;99.90;;;;;;4934037;29;20035;-83
2021/12/01 06:55:09;;;;;;;0.10;0.10;;;6.30;99.90;;;;;;4936027;29;20051;-81
2021/12/01 06:58:01;;;;;;;0.00;0.00;;;6.50;99.90;;;;;;5690813;23;20028;31
2021/12/01 07:00:27;;;;;;;0.10;0.10;;;7.50;99.90;;;;;;4883025;29;20059;-81
2021/12/01 07:02:53;;;;;;;0.10;0.10;;;6.60;99.90;;;;;;4910517;29;20056;-82
2021/12/01 07:05:19;;;;;;;0.00;0.00;;;6.70;99.90;;;;;;4907571;29;20044;-79
2021/12/01 07:07:44;;;;;;;0.08;0.08;;;7.00;99.90;;;;;;4904069;29;20039;-78
2021/12/01 07:10:12;;;;;;;0.10;0.10;;;7.20;99.90;;;;;;4905968;29;20104;-80
2021/12/01 07:12:39;;;;;;;0.20;0.10;;;7.40;99.90;;;;;;4903820;29;20088;-79
2021/12/01 07:15:06;;;;;;;0.10;0.10;;;7.40;99.90;;;;;;4905412;29;20438;-81
2021/12/01 07:17:32;;;;;;;0.10;0.10;;;7.60;99.90;;;;;;4899376;29;20055;-79
2021/12/01 07:19:58;;;;;;;0.00;0.00;;;7.80;99.90;;;;;;4897805;29;20406;-82
2021/12/01 07:22:23;;;;;;;0.10;0.10;;;8.00;99.90;;;;;;4897015;29;20047;-80
2021/12/01 07:24:49;;;;;;;0.00;0.00;;;8.00;99.90;;;;;;4896367;29;20021;-83
2021/12/01 07:27:15;;;;;;;0.10;0.10;;;8.10;99.90;;;;;;4909113;29;20028;-80
2021/12/01 07:32:35;;;;;;;0.10;0.10;;;8.20;99.90;;;;;;5517771;23;20142;-84
2021/12/01 07:35:01;;;;;;;0.10;0.10;;;8.10;99.90;;;;;;4922645;29;20035;-79
2021/12/01 07:37:27;;;;;;;0.05;0.05;;;8.20;99.90;;;;;;4923096;29;20047;-78
2021/12/01 07:39:53;;;;;;;0.00;0.00;;;8.40;99.90;;;;;;4916175;29;20469;-80
2021/12/01 07:42:19;;;;;;;0.98;0.10;;;8.40;99.90;;;;;;4923077;29;20039;-84
2021/12/01 07:44:45;;;;;;;0.32;0.20;;;8.60;99.90;;;;;;4921424;29;20037;-79
2021/12/01 07:47:11;;;;;;;0.00;0.00;;;8.70;99.90;;;;;;4931389;29;20031;-83
2021/12/01 07:49:38;;;;;;;0.10;0.10;;;8.70;99.90;;;;;;4935663;29;20024;-80
2021/12/01 07:52:06;;;;;;;0.10;0.10;;;8.70;99.90;;;;;;4919180;29;20023;-81
2021/12/01 07:54:32;;;;;;;0.10;0.10;;;8.80;99.90;;;;;;4903911;29;20074;-80
2021/12/01 07:56:58;;;;;;;0.10;0.10;;;8.90;99.90;;;;;;4935166;29;20016;-77
2021/12/01 07:59:24;;;;;;;0.10;0.10;;;9.00;99.90;;;;;;4916232;29;20059;-76
2021/12/01 08:01:50;;;;;;;0.10;0.10;;;9.20;99.90;;;;;;4917868;29;20082;-82
2021/12/01 08:04:16;;;;;;;0.10;0.10;;;9.30;99.90;;;;;;4933167;29;20035;-81
2021/12/01 08:06:45;;;;;;;0.10;0.10;;;9.40;99.90;;;;;;4919924;29;20169;-76
2021/12/01 08:09:11;;;;;;;0.00;0.00;;;9.50;99.90;;;;;;4932921;29;20062;-78
2021/12/01 08:11:38;;;;;;;0.10;0.10;;;9.60;99.90;;;;;;4918004;29;20330;-80
2021/12/01 08:14:06;;;;;;;0.00;0.00;;;9.70;99.90;;;;;;4916736;29;20023;-78
2021/12/01 08:16:32;;;;;;;0.32;0.10;;;9.70;99.90;;;;;;4915138;29;20086;-79
2021/12/01 08:18:58;;;;;;;0.00;0.00;;;9.80;99.90;;;;;;4913039;29;20021;-79
2021/12/01 08:21:24;;;;;;;0.08;0.08;;;9.90;99.90;;;;;;4892812;29;20059;-79
2021/12/01 08:23:52;;;;;;;0.10;0.10;;;9.90;99.90;;;;;;4913392;29;20444;-79
2021/12/01 08:26:18;;;;;;;0.00;0.00;;;10.00;99.90;;;;;;4910007;29;20028;-79
2021/12/01 08:28:47;;;;;;;0.10;0.10;;;10.10;99.90;;;;;;4907944;29;20414;-78
2021/12/01 08:31:14;;;;;;;0.05;0.05;;;10.10;99.90;;;;;;4915223;29;20467;-79
2021/12/01 08:33:41;;;;;;;0.10;0.10;;;10.20;99.90;;;;;;4934235;29;20047;-78
2021/12/01 08:36:07;;;;;;;0.17;0.17;;;10.30;99.90;;;;;;4957669;29;20031;-79
2021/12/01 08:38:33;;;;;;;0.05;0.05;;;10.30;99.90;;;;;;4935912;29;20224;-78
2021/12/01 08:40:59;;;;;;;0.15;0.10;;;10.30;99.90;;;;;;4930149;29;20099;-78
2021/12/01 08:43:25;;;;;;;0.10;0.10;;;10.30;99.90;;;;;;4930229;29;20031;-79
2021/12/01 08:45:51;;;;;;;0.00;0.00;;;10.30;99.90;;;;;;4946748;29;20023;-79
2021/12/01 08:48:17;;;;;;;0.10;0.10;;;10.30;99.90;;;;;;4930397;29;20586;-78
2021/12/01 08:50:43;;;;;;;0.98;0.55;;;10.30;99.90;;;;;;4948045;29;20031;-78
2021/12/01 08:53:09;;;;;;;0.10;0.10;;;10.20;99.90;;;;;;4930014;29;20031;-79
2021/12/01 08:55:37;;;;;;;1.55;0.10;;;10.20;99.90;;;;;;4930179;29;20514;-78
2021/12/01 08:58:03;;;;;;;0.10;0.10;;;10.30;99.90;;;;;;4948205;29;20024;-78
2021/12/01 09:00:33;;;;;;;0.10;0.10;;;10.30;99.90;;;;;;4931358;29;20365;-79
2021/12/01 09:02:58;;;;;;;0.00;0.00;;;10.30;99.90;;;;;;4930727;29;20019;-79
2021/12/01 09:05:24;;;;;;;0.00;0.00;;;10.40;99.90;;;;;;4931047;29;20023;-78
2021/12/01 09:07:50;;;;;;;0.70;0.20;;;10.40;99.90;;;;;;4931565;29;20032;-79
2021/12/01 09:10:16;;;;;;;0.15;0.10;;;10.50;99.90;;;;;;4931752;29;20034;-79
2021/12/01 09:12:43;;;;;;;0.00;0.00;;;10.50;99.90;;;;;;4949231;29;20024;-79
2021/12/01 09:15:09;;;;;;;0.00;0.00;;;10.50;99.90;;;;;;4948783;29;20045;-79
2021/12/01 09:17:35;;;;;;;0.10;0.10;;;10.40;99.90;;;;;;4949321;29;20027;-79
2021/12/01 09:20:03;;;;;;;0.05;0.05;;;10.50;99.90;;;;;;4949500;29;20108;-79
2021/12/01 09:22:28;;;;;;;0.10;0.10;;;10.50;99.90;;;;;;4931215;29;20391;-80
2021/12/01 09:24:54;;;;;;;0.10;0.10;;;10.50;99.90;;;;;;4931009;29;20027;-78
2021/12/01 09:27:20;;;;;;;0.10;0.10;;;10.70;99.90;;;;;;4949210;29;20544;-79
2021/12/01 09:29:45;;;;;;;0.10;0.10;;;10.80;99.90;;;;;;4949345;29;20067;-79
2021/12/01 09:32:12;;;;;;;0.10;0.10;;;10.90;99.90;;;;;;4921437;29;20504;-80
2021/12/01 09:34:39;;;;;;;0.00;0.00;;;10.90;99.90;;;;;;4931187;29;20495;-79
2021/12/01 09:37:06;;;;;;;0.10;0.10;;;11.00;99.90;;;;;;4916062;29;20062;-79
2021/12/01 09:39:32;;;;;;;0.10;0.10;;;11.10;99.90;;;;;;4916435;29;20255;-79
2021/12/01 09:41:59;;;;;;;0.70;0.10;;;11.10;99.90;;;;;;4933290;29;20684;-79
2021/12/01 09:44:25;;;;;;;0.10;0.10;;;11.10;99.90;;;;;;4932977;29;20028;-79
2021/12/01 09:46:51;;;;;;;0.00;0.00;;;11.20;99.90;;;;;;4916457;29;20051;-79
2021/12/01 09:49:17;;;;;;;0.00;0.00;;;11.20;99.90;;;;;;4935658;29;20492;-79
2021/12/01 09:51:43;;;;;;;0.00;0.00;;;11.10;99.90;;;;;;4916198;29;20134;-79
2021/12/01 09:54:09;;;;;;;0.10;0.10;;;11.10;99.90;;;;;;4915257;29;20032;-80
2021/12/01 09:56:34;;;;;;;0.05;0.05;;;11.20;99.90;;;;;;4932267;29;20335;-79
2021/12/01 09:59:00;;;;;;;0.10;0.10;;;11.80;99.90;;;;;;4934475;29;20091;-79
2021/12/01 10:01:28;;;;;;;0.00;0.00;;;11.40;99.90;;;;;;4951786;29;20114;-79
2021/12/01 10:03:54;;;;;;;0.10;0.10;;;11.40;99.90;;;;;;4934403;29;20034;-79
2021/12/01 10:06:22;;;;;;;1.88;0.10;;;11.70;99.90;;;;;;4951355;29;20475;-79
2021/12/01 10:09:03;;;;;;;0.03;0.03;;;11.70;99.90;;;;;;4934435;29;20042;-78
2021/12/01 10:11:31;;;;;;;0.80;0.20;;;11.60;99.90;;;;;;4934596;29;20122;-79
2021/12/01 10:14:04;;;;;;;0.03;0.03;;;11.60;99.90;;;;;;4934798;29;20419;-79
2021/12/01 10:16:33;;;;;;;0.10;0.10;;;11.40;99.90;;;;;;4933668;29;20038;-79
2021/12/01 10:19:11;;;;;;;0.00;0.00;;;11.40;99.90;;;;;;4951623;29;20034;-79
2021/12/01 10:21:48;;;;;;;0.10;0.10;;;11.30;99.90;;;;;;4934032;29;20035;-79
2021/12/01 10:24:28;;;;;;;0.00;0.00;;;11.00;99.90;;;;;;4934144;29;20424;-80
2021/12/01 10:27:00;;;;;;;0.00;0.00;;;11.20;99.90;;;;;;4934106;29;20468;-80
2021/12/01 10:29:31;;;;;;;0.10;0.10;;;11.20;99.90;;;;;;4951247;29;20027;-79
2021/12/01 10:32:07;;;;;;;0.05;0.05;;;11.20;99.90;;;;;;4925495;29;20031;-79
2021/12/01 10:34:40;;;;;;;0.20;0.20;;;11.20;99.90;;;;;;4912906;29;20035;-79
2021/12/01 10:37:13;;;;;;;0.00;0.00;;;11.20;99.90;;;;;;4931632;29;20038;-80
2021/12/01 10:39:46;;;;;;;0.00;0.00;;;11.30;99.90;;;;;;4914029;28;20032;-79
2021/12/01 10:42:15;;;;;;;0.93;0.10;;;11.30;99.90;;;;;;4896749;29;20472;-80
2021/12/01 10:45:03;;;;;;;0.00;0.00;;;11.30;99.90;;;;;;4913717;29;20028;-79
2021/12/01 10:47:41;;;;;;;0.10;0.10;;;11.30;99.90;;;;;;4913390;29;20032;-78
2021/12/01 10:50:11;;;;;;;0.00;0.00;;;11.40;99.90;;;;;;4903360;29;20504;-80
2021/12/01 10:52:41;;;;;;;0.00;0.00;;;11.40;99.90;;;;;;4914720;29;20025;-80
2021/12/01 10:55:13;;;;;;;0.10;0.10;;;11.50;99.90;;;;;;4898486;29;20036;-80
2021/12/01 10:58:06;;;;;;;0.10;0.10;;;11.50;99.90;;;;;;4913866;29;20032;-79
2021/12/01 11:00:46;;;;;;;0.10;0.10;;;11.50;99.90;;;;;;4901397;29;20069;-80
2021/12/01 11:03:20;;;;;;;0.00;0.00;;;11.50;99.90;;;;;;4896091;29;20131;-80
2021/12/01 11:05:48;;;;;;;0.52;0.20;;;11.40;99.90;;;;;;4913971;29;20468;-80
2021/12/01 11:08:31;;;;;;;0.15;0.10;;;11.30;99.90;;;;;;4933761;28;20033;-78
2021/12/01 11:11:11;;;;;;;0.00;0.00;;;11.30;99.90;;;;;;4935306;28;20115;-79
2021/12/01 11:13:40;;;;;;;0.10;0.10;;;11.30;99.90;;;;;;4913961;29;20572;-79
2021/12/01 11:16:08;;;;;;;0.00;0.00;;;11.20;99.90;;;;;;4909130;29;20744;-79
2021/12/01 11:18:37;;;;;;;0.60;0.20;;;11.10;99.90;;;;;;4913572;29;20512;-79
2021/12/01 11:21:08;;;;;;;0.10;0.10;;;11.10;99.90;;;;;;4930843;29;20039;-80
2021/12/01 11:23:40;;;;;;;0.10;0.10;;;10.90;99.90;;;;;;4914939;29;20031;-79
2021/12/01 11:26:19;;;;;;;0.05;0.05;;;10.80;99.90;;;;;;4932448;29;20027;-80
2021/12/01 11:28:49;;;;;;;;;;;10.60;99.90;;;;;;4915255;29;20407;-79
2021/12/01 11:31:16;;;;;;;;;;;10.60;99.90;;;;;;4935153;29;19914;-78
2021/12/01 11:33:45;;;;;;;1.38;0.90;;;10.60;99.90;;;;;;4950606;29;20186;-79
2021/12/01 11:36:18;;;;;;;0.10;0.10;;;10.60;99.90;;;;;;4950192;29;20232;-79
2021/12/01 11:38:59;;;;;;;0.35;0.10;;;10.70;99.90;;;;;;4923216;29;20366;-79
2021/12/01 11:41:27;;;;;;;0.00;0.00;;;10.90;99.90;;;;;;4912836;29;20397;-78
2021/12/01 11:43:54;;;;;;;0.10;0.10;;;11.00;99.90;;;;;;4913178;29;20024;-79
2021/12/01 11:46:21;;;;;;;0.10;0.10;;;11.00;99.90;;;;;;4909943;29;20055;-79
2021/12/01 11:48:53;;;;;;;0.10;0.10;;;11.10;99.90;;;;;;4932168;29;20031;-75
2021/12/01 11:51:47;;;;;;;0.10;0.10;;;11.00;99.90;;;;;;4914021;29;20176;-79
2021/12/01 11:54:18;;;;;;;0.17;0.17;;;11.10;99.90;;;;;;4931955;29;20066;-79
2021/12/01 11:57:05;;;;;;;0.85;0.30;;;11.00;99.90;;;;;;4914978;29;20408;-79
2021/12/01 11:59:36;;;;;;;0.30;0.10;;;11.10;99.90;;;;;;4931597;29;20032;-78
2021/12/01 12:02:15;;;;;;;0.10;0.10;;;11.10;99.90;;;;;;4914580;29;20154;-78
2021/12/01 12:04:46;;;;;;;0.33;0.10;;;11.20;99.90;;;;;;4931900;29;20028;-80
2021/12/01 12:07:21;;;;;;;0.00;0.00;;;11.20;99.90;;;;;;4931153;29;20159;-80
2021/12/01 12:10:16;;;;;;;0.00;0.00;;;11.10;99.90;;;;;;4931520;29;20506;-79
2021/12/01 12:13:00;;;;;;;0.10;0.10;;;11.20;99.90;;;;;;4931774;29;20675;-79
2021/12/01 12:15:47;;;;;;;1.27;0.10;;;11.20;99.90;;;;;;4931639;29;20036;-79
2021/12/01 12:18:35;;;;;;;0.82;0.03;;;11.10;99.90;;;;;;4914794;29;20135;-79
2021/12/01 12:21:22;;;;;;;0.00;0.00;;;11.10;99.90;;;;;;4931247;29;20038;-79
2021/12/01 12:23:49;;;;;;;0.10;0.10;;;11.00;99.90;;;;;;4914115;29;20031;-79
2021/12/01 12:26:32;;;;;;;0.25;0.10;;;11.00;99.90;;;;;;4928704;28;20030;-79
2021/12/01 12:29:05;;;;;;;0.00;0.00;;;10.90;99.90;;;;;;4944176;29;20031;-80
2021/12/01 12:31:31;;;;;;;0.10;0.10;;;10.90;99.90;;;;;;4947005;29;20055;-79
2021/12/01 12:34:04;;;;;;;0.10;0.10;;;10.80;99.90;;;;;;4912689;29;20050;-80
2021/12/01 12:36:50;;;;;;;0.10;0.10;;;10.70;99.90;;;;;;4913103;29;20428;-80
2021/12/01 12:39:22;;;;;;;0.00;0.00;;;10.40;99.90;;;;;;4913164;29;20039;-79
2021/12/01 12:41:54;;;;;;;0.00;0.00;;;10.20;99.90;;;;;;4913236;29;20035;-79
2021/12/01 12:44:35;;;;;;;0.10;0.10;;;10.00;99.90;;;;;;4913592;29;20063;-79
2021/12/01 12:47:02;;;;;;;0.10;0.10;;;9.90;99.90;;;;;;4929588;29;20107;-78
2021/12/01 12:49:39;;;;;;;0.10;0.10;;;10.10;99.90;;;;;;4912504;29;20108;-78
2021/12/01 12:52:23;;;;;;;0.10;0.10;;;9.60;99.90;;;;;;4930489;29;20374;-77
2021/12/01 12:54:49;;;;;;;0.00;0.00;;;9.60;99.90;;;;;;4912141;29;20036;-78
2021/12/01 12:57:16;;;;;;;0.10;0.10;;;9.40;99.90;;;;;;4912591;29;20035;-77
2021/12/01 12:59:42;;;;;;;0.10;0.10;;;9.30;99.90;;;;;;4928767;29;20374;-78
2021/12/01 13:02:11;;;;;;;0.10;0.10;;;9.10;99.90;;;;;;4928791;29;20036;-78
2021/12/01 13:07:31;;;;;;;0.10;0.10;;;9.00;99.90;;;;;;4930553;29;20153;-77
2021/12/01 13:10:17;;;;;;;0.00;0.00;;;9.00;99.90;;;;;;4914828;29;20024;-78
2021/12/01 13:12:47;;;;;;;0.22;0.10;;;9.00;99.90;;;;;;4935357;29;20024;-78
2021/12/01 13:15:23;;;;;;;0.10;0.10;;;9.00;99.90;;;;;;4934125;29;20094;-78
2021/12/01 13:17:51;;;;;;;0.17;0.15;;;9.00;99.90;;;;;;4919381;29;20028;-78
2021/12/01 13:20:18;;;;;;;0.00;0.00;;;9.00;99.90;;;;;;4917503;29;20488;-78
2021/12/01 13:23:06;;;;;;;0.10;0.10;;;9.00;99.90;;;;;;4941008;28;20032;-78
2021/12/01 13:25:34;;;;;;;0.10;0.10;;;9.00;99.90;;;;;;4932204;29;20039;-79
2021/12/01 13:28:03;;;;;;;0.10;0.10;;;9.00;99.90;;;;;;4917506;29;20027;-78
2021/12/01 13:30:31;;;;;;;0.10;0.10;;;9.00;99.90;;;;;;4917885;29;20031;-77
2021/12/01 13:33:14;;;;;;;0.20;0.20;;;9.00;99.90;;;;;;4951312;29;20050;-78